Time;durP1;ratioP1;P1;durP2;ratioP2;P2;SDS_P1;SDS_P2;PMS_P1;PMS_P2;Temp;Humidity;BMP_temperature;BMP_pressure;BME280_temperature;BME280_humidity;BME280_pressure;Samples;Min_cycle;Max_cycle;Signal;HPM_P1;HPM_P2
2023/10/06 00:00:53;;;;;;;10.60;3.10;;;;;;;19.20;51.90;99566.88;5114437;28;20172;-85
2023/10/06 00:03:20;;;;;;;10.67;3.60;;;;;;;19.14;52.05;99562.91;5114574;28;20172;-85
2023/10/06 00:05:53;;;;;;;9.00;2.97;;;;;;;19.11;52.09;99570.25;5114374;28;20228;-85
2023/10/06 00:08:22;;;;;;;8.20;2.80;;;;;;;19.09;52.27;99569.53;5115105;28;20156;-85
2023/10/06 00:10:51;;;;;;;11.37;3.30;;;;;;;19.10;52.32;99565.94;5114347;28;20714;-85
2023/10/06 00:13:19;;;;;;;9.80;3.47;;;;;;;19.10;52.18;99571.25;5114169;28;20183;-85
2023/10/06 00:15:46;;;;;;;9.40;3.00;;;;;;;19.07;52.38;99574.16;5114318;28;20166;-85
2023/10/06 00:18:27;;;;;;;10.33;2.90;;;;;;;18.98;52.70;99571.25;5113880;28;20187;-85
2023/10/06 00:21:05;;;;;;;12.47;4.27;;;;;;;18.97;52.96;99571.41;5114591;28;20598;-85
2023/10/06 00:23:38;;;;;;;12.77;3.53;;;;;;;18.99;52.80;99574.75;5096282;28;20160;-85
2023/10/06 00:26:08;;;;;;;11.10;3.37;;;;;;;19.04;52.66;99577.88;5096148;28;20176;-85
2023/10/06 00:28:36;;;;;;;9.23;3.57;;;;;;;19.03;52.48;99573.53;5096241;28;20252;-85
2023/10/06 00:31:08;;;;;;;9.20;3.43;;;;;;;18.96;52.84;99565.22;5095690;28;20234;-85
2023/10/06 00:33:38;;;;;;;8.33;3.27;;;;;;;18.92;53.32;99569.06;5114156;28;20184;-85
2023/10/06 00:36:17;;;;;;;7.97;3.40;;;;;;;18.87;53.27;99562.44;5113994;28;20187;-85
2023/10/06 00:38:54;;;;;;;9.37;3.73;;;;;;;18.78;53.61;99553.41;5095918;28;20194;-85
2023/10/06 00:41:21;;;;;;;11.30;3.90;;;;;;;18.84;52.97;99554.75;5095885;28;20189;-85
2023/10/06 00:43:48;;;;;;;10.10;3.50;;;;;;;18.87;52.96;99559.78;5114467;28;20193;-85
2023/10/06 00:46:16;;;;;;;10.33;4.27;;;;;;;18.90;52.77;99565.72;5113798;28;20185;-85
2023/10/06 00:48:45;;;;;;;8.87;2.87;;;;;;;18.95;52.35;99557.34;5113766;28;20174;-85
2023/10/06 00:51:41;;;;;;;13.73;3.60;;;;;;;18.82;52.96;99557.50;5095867;28;20236;-85
2023/10/06 00:54:01;;;;;;;10.70;3.07;;;;;;;18.74;53.27;99553.75;5113144;28;20255;-85
2023/10/06 00:56:28;;;;;;;8.10;3.20;;;;;;;18.74;53.39;99553.75;5113525;28;20254;-85
2023/10/06 00:58:55;;;;;;;9.07;3.93;;;;;;;18.64;53.75;99548.34;5075398;28;20186;-85
2023/10/06 01:01:22;;;;;;;10.83;3.23;;;;;;;18.49;54.17;99554.00;5093607;28;20182;-85
2023/10/06 01:04:08;;;;;;;9.07;3.50;;;;;;;18.37;54.44;99550.47;5096675;28;20179;-85
2023/10/06 01:06:39;;;;;;;9.73;3.10;;;;;;;18.31;53.72;99558.91;5113632;28;20179;-85
2023/10/06 01:09:16;;;;;;;8.83;3.17;;;;;;;18.36;53.42;99554.94;5095602;28;20190;-85
2023/10/06 01:11:50;;;;;;;10.57;3.50;;;;;;;18.29;53.20;99550.25;5113402;28;20267;-85
2023/10/06 01:14:23;;;;;;;10.57;4.00;;;;;;;18.30;52.76;99555.41;5113517;28;20196;-85
2023/10/06 01:16:51;;;;;;;10.17;3.57;;;;;;;18.25;52.84;99548.78;5114040;28;20247;-85
2023/10/06 01:21:53;;;;;;;7.03;3.17;;;;;;;18.10;52.41;99547.31;5113400;28;20179;-85
2023/10/06 01:24:26;;;;;;;8.20;2.53;;;;;;;18.07;52.69;99551.03;5113162;28;20200;-85
2023/10/06 01:26:54;;;;;;;13.43;3.23;;;;;;;18.08;52.29;99543.94;5095572;28;20188;-85
2023/10/06 01:29:29;;;;;;;12.87;3.43;;;;;;;18.05;52.38;99549.47;5113353;28;20199;-85
2023/10/06 01:31:56;;;;;;;7.00;2.87;;;;;;;18.06;51.78;99548.47;5113697;28;20205;-85
2023/10/06 01:34:24;;;;;;;13.77;3.57;;;;;;;18.07;51.82;99540.44;5113360;28;20180;-85
2023/10/06 01:36:53;;;;;;;8.83;2.93;;;;;;;18.05;51.47;99541.50;5095160;28;20668;-84
2023/10/06 01:39:22;;;;;;;9.80;3.40;;;;;;;17.93;51.63;99545.94;5113268;28;20267;-85
2023/10/06 01:41:49;;;;;;;11.30;3.50;;;;;;;17.90;51.99;99550.66;5095659;28;20633;-85
2023/10/06 01:44:17;;;;;;;10.73;3.70;;;;;;;17.86;51.64;99539.41;5095171;28;20554;-85
2023/10/06 01:46:53;;;;;;;9.77;3.03;;;;;;;17.81;52.04;99541.56;5113530;28;20187;-85
2023/10/06 01:49:21;;;;;;;13.80;3.47;;;;;;;17.77;51.94;99540.09;5094985;28;20264;-85
2023/10/06 01:51:51;;;;;;;10.87;3.50;;;;;;;17.79;51.60;99533.72;5095204;28;20194;-85
2023/10/06 01:54:18;;;;;;;9.60;3.27;;;;;;;17.82;51.85;99527.31;5095243;28;20205;-85
2023/10/06 01:56:46;;;;;;;10.83;3.20;;;;;;;17.78;52.02;99536.50;5095128;28;20529;-84
2023/10/06 01:59:14;;;;;;;11.90;4.53;;;;;;;17.77;52.30;99538.28;5095020;28;20627;-84
2023/10/06 02:01:41;;;;;;;11.50;3.50;;;;;;;17.73;52.37;99534.19;5113125;28;20251;-84
2023/10/06 02:04:14;;;;;;;9.73;3.43;;;;;;;17.70;52.47;99529.13;5095008;28;20545;-84
2023/10/06 02:06:48;;;;;;;7.90;3.07;;;;;;;17.62;52.90;99536.81;5113402;28;20589;-85
2023/10/06 02:09:15;;;;;;;7.93;2.93;;;;;;;17.62;53.00;99530.66;5105381;28;20647;-85
2023/10/06 02:11:53;;;;;;;10.73;2.90;;;;;;;17.58;53.00;99524.72;5113015;28;20258;-84
2023/10/06 02:14:20;;;;;;;9.23;3.33;;;;;;;17.52;53.23;99533.13;5112871;28;20171;-84
2023/10/06 02:16:45;;;;;;;10.57;3.43;;;;;;;17.52;53.21;99535.78;5115679;28;20199;-85
2023/10/06 02:19:16;;;;;;;10.60;4.20;;;;;;;17.55;53.14;99532.06;5116953;28;20191;-85
2023/10/06 02:21:42;;;;;;;8.27;2.87;;;;;;;17.53;53.25;99537.47;5116735;28;20159;-84
2023/10/06 02:24:09;;;;;;;14.00;3.77;;;;;;;17.58;52.92;99542.47;5098498;28;20209;-85
2023/10/06 02:26:36;;;;;;;8.93;3.50;;;;;;;17.59;52.69;99539.69;5116770;28;20172;-85
2023/10/06 02:29:07;;;;;;;8.93;3.57;;;;;;;17.46;53.38;99541.53;5098061;28;20240;-85
2023/10/06 02:31:35;;;;;;;10.43;2.77;;;;;;;17.36;53.61;99540.50;5098275;28;20582;-85
2023/10/06 02:34:01;;;;;;;8.23;3.63;;;;;;;17.33;53.72;99548.69;5098112;28;20628;-85
2023/10/06 02:36:28;;;;;;;8.63;3.40;;;;;;;17.35;53.92;99546.75;5098288;28;20198;-84
2023/10/06 02:38:54;;;;;;;12.77;4.47;;;;;;;17.34;53.83;99553.03;5116157;28;20606;-84
2023/10/06 02:41:25;;;;;;;11.80;4.90;;;;;;;17.28;54.18;99542.88;5116217;28;20175;-85
2023/10/06 02:43:52;;;;;;;12.67;4.40;;;;;;;17.27;54.03;99546.47;5116489;28;20152;-85
2023/10/06 02:46:21;;;;;;;12.97;4.40;;;;;;;17.24;54.51;99551.19;5116094;28;20179;-85
2023/10/06 02:48:50;;;;;;;15.90;4.70;;;;;;;17.18;54.89;99549.81;5115996;28;20214;-84
2023/10/06 02:51:29;;;;;;;12.50;4.27;;;;;;;17.13;54.99;99555.47;5116010;28;20596;-85
2023/10/06 02:54:46;;;;;;;9.47;3.63;;;;;;;17.13;54.90;99546.66;5098068;28;20167;-85
2023/10/06 02:56:46;;;;;;;12.77;4.33;;;;;;;17.09;55.05;99547.81;5104827;28;20602;-84
2023/10/06 02:59:26;;;;;;;9.63;3.87;;;;;;;17.09;54.82;99547.81;5097795;28;20679;-84
2023/10/06 03:02:06;;;;;;;10.97;3.53;;;;;;;17.10;54.87;99549.53;5097954;28;20174;-85
2023/10/06 03:04:36;;;;;;;8.87;4.27;;;;;;;17.04;55.52;99548.16;5115796;28;20594;-85
2023/10/06 03:07:11;;;;;;;8.47;3.93;;;;;;;17.02;55.50;99549.22;5097735;28;20696;-85
2023/10/06 03:09:38;;;;;;;9.13;3.47;;;;;;;16.98;55.43;99547.78;5097342;28;20207;-84
2023/10/06 03:12:14;;;;;;;14.33;3.23;;;;;;;16.99;55.25;99552.94;5097069;28;20264;-84
2023/10/06 03:14:42;;;;;;;11.07;3.13;;;;;;;16.96;54.94;99552.31;5115940;28;20490;-84
2023/10/06 03:17:10;;;;;;;8.30;3.43;;;;;;;16.92;55.04;99545.56;5097543;28;20191;-85
2023/10/06 03:19:41;;;;;;;12.87;3.00;;;;;;;16.92;54.76;99543.75;5097747;28;20249;-84
2023/10/06 03:22:09;;;;;;;9.90;3.20;;;;;;;16.98;54.33;99542.47;5095633;28;20172;-85
2023/10/06 03:24:52;;;;;;;8.47;3.40;;;;;;;16.97;54.38;99549.56;5101771;28;20695;-85
2023/10/06 03:27:22;;;;;;;9.17;3.10;;;;;;;16.98;53.79;99545.13;5114829;28;20169;-84
2023/10/06 03:32:29;;;;;;;9.00;3.03;;;;;;;16.85;54.03;99544.31;5115603;28;20201;-85
2023/10/06 03:34:57;;;;;;;12.53;3.50;;;;;;;16.82;53.96;99549.81;5097276;28;20171;-84
2023/10/06 03:37:44;;;;;;;8.80;3.17;;;;;;;16.80;54.47;99552.56;5114630;28;20214;-84
2023/10/06 03:40:19;;;;;;;9.07;3.30;;;;;;;16.83;53.79;99549.69;5097152;28;20167;-84
2023/10/06 03:42:52;;;;;;;11.00;3.57;;;;;;;16.84;53.72;99542.63;5096711;28;20267;-84
2023/10/06 03:45:32;;;;;;;14.43;4.30;;;;;;;16.84;53.82;99539.97;5097084;28;20192;-84
2023/10/06 03:48:14;;;;;;;13.10;4.47;;;;;;;16.75;54.27;99543.25;5097084;28;20179;-84
2023/10/06 03:50:43;;;;;;;8.87;3.00;;;;;;;16.78;54.02;99549.19;5115109;28;20184;-84
2023/10/06 03:53:11;;;;;;;10.63;3.60;;;;;;;16.78;54.11;99549.19;5114653;28;20201;-84
2023/10/06 03:55:45;;;;;;;10.60;4.27;;;;;;;16.77;54.42;99546.66;5115283;28;20528;-84
2023/10/06 03:58:15;;;;;;;12.03;3.67;;;;;;;16.70;55.48;99546.25;5107596;28;20188;-84
2023/10/06 04:00:47;;;;;;;13.27;3.37;;;;;;;16.64;56.52;99549.31;5107684;28;20185;-84
2023/10/06 04:03:17;;;;;;;11.17;3.63;;;;;;;16.55;57.78;99548.19;5092634;28;20190;-84
2023/10/06 04:05:49;;;;;;;11.03;4.10;;;;;;;16.53;58.74;99544.78;5109831;28;20573;-84
2023/10/06 04:08:19;;;;;;;15.07;4.13;;;;;;;16.52;59.00;99548.41;5114753;28;20172;-84
2023/10/06 04:10:53;;;;;;;13.93;3.87;;;;;;;16.56;59.21;99543.75;5114243;28;20293;-84
2023/10/06 04:13:20;;;;;;;9.10;3.77;;;;;;;16.65;59.23;99547.53;5113799;28;20262;-84
2023/10/06 04:15:50;;;;;;;8.80;3.73;;;;;;;16.57;59.76;99545.41;5095655;28;20516;-84
2023/10/06 04:18:19;;;;;;;11.40;4.20;;;;;;;16.59;59.95;99547.00;5096219;28;20195;-84
2023/10/06 04:20:47;;;;;;;9.27;4.10;;;;;;;16.57;60.14;99556.84;5114205;28;20700;-84
2023/10/06 04:23:17;;;;;;;12.03;3.30;;;;;;;16.67;60.26;99557.03;5096246;28;20177;-84
2023/10/06 04:25:45;;;;;;;13.60;4.97;;;;;;;16.71;60.57;99550.59;5114035;28;20269;-84
2023/10/06 04:28:20;;;;;;;11.90;4.53;;;;;;;16.77;60.45;99559.91;5096403;28;20540;-85
2023/10/06 04:30:52;;;;;;;11.97;4.23;;;;;;;16.88;60.53;99557.31;5113893;28;20294;-84
2023/10/06 04:33:25;;;;;;;9.10;3.73;;;;;;;17.01;60.61;99555.47;5114571;28;20156;-84
2023/10/06 04:36:11;;;;;;;11.13;3.47;;;;;;;17.05;60.91;99560.47;5095991;28;20628;-84
2023/10/06 04:38:48;;;;;;;13.13;4.47;;;;;;;17.06;61.33;99567.44;5114221;28;20156;-84
2023/10/06 04:41:14;;;;;;;10.37;3.93;;;;;;;17.15;60.94;99573.88;5114576;28;20167;-84
2023/10/06 04:43:44;;;;;;;10.83;3.67;;;;;;;17.24;60.54;99572.38;5095897;28;20186;-85
2023/10/06 04:46:13;;;;;;;13.43;4.73;;;;;;;17.36;60.17;99582.91;5113868;28;20508;-84
2023/10/06 04:48:39;;;;;;;13.90;4.53;;;;;;;17.48;59.67;99574.06;5113821;28;20539;-84
2023/10/06 04:51:12;;;;;;;15.97;4.67;;;;;;;17.59;59.39;99575.94;5113730;28;20225;-85
2023/10/06 04:53:38;;;;;;;10.40;3.87;;;;;;;17.72;58.97;99574.91;5113787;28;20158;-84
2023/10/06 04:56:10;;;;;;;11.10;4.27;;;;;;;17.77;58.96;99571.91;5095799;28;20185;-84
2023/10/06 04:58:39;;;;;;;12.23;4.57;;;;;;;17.75;59.20;99580.00;5095605;28;20277;-84
2023/10/06 05:01:04;;;;;;;16.83;4.83;;;;;;;17.87;58.70;99577.38;5113654;28;20178;-85
2023/10/06 05:03:41;;;;;;;20.23;5.03;;;;;;;17.94;59.05;99578.63;5113928;28;20175;-84
2023/10/06 05:06:13;;;;;;;10.63;3.70;;;;;;;17.98;58.79;99575.59;5113621;28;20170;-85
2023/10/06 05:08:39;;;;;;;13.70;4.10;;;;;;;18.07;58.86;99579.38;5093339;28;20179;-84
2023/10/06 05:11:06;;;;;;;15.17;4.00;;;;;;;18.26;58.28;99579.66;5093463;28;20196;-84
2023/10/06 05:13:34;;;;;;;11.67;4.77;;;;;;;18.37;57.91;99575.19;5104100;28;20199;-84
2023/10/06 05:16:01;;;;;;;10.80;4.97;;;;;;;18.50;57.46;99576.94;5113549;28;20641;-84
2023/10/06 05:18:26;;;;;;;14.17;4.97;;;;;;;18.53;57.51;99582.84;5113234;28;20172;-85
2023/10/06 05:20:53;;;;;;;15.17;5.63;;;;;;;18.63;57.30;99585.66;5113468;28;20177;-84
2023/10/06 05:23:20;;;;;;;15.47;4.70;;;;;;;18.64;57.37;99587.31;5113510;28;20172;-84
2023/10/06 05:25:47;;;;;;;13.10;5.10;;;;;;;18.84;56.64;99592.75;5113370;28;20183;-84
2023/10/06 05:28:16;;;;;;;12.80;4.83;;;;;;;18.90;56.12;99602.91;5095361;28;20177;-85
2023/10/06 05:30:43;;;;;;;15.43;5.83;;;;;;;19.00;56.08;99598.53;5113138;28;20309;-85
2023/10/06 05:33:09;;;;;;;13.80;5.20;;;;;;;19.18;55.34;99598.06;5095250;28;20189;-85
2023/10/06 05:35:41;;;;;;;13.00;4.97;;;;;;;19.11;55.81;99595.03;5113227;28;20171;-85
2023/10/06 05:38:13;;;;;;;19.20;6.13;;;;;;;19.41;55.33;99597.91;5113969;28;20568;-85
2023/10/06 05:40:40;;;;;;;14.53;5.67;;;;;;;19.51;54.50;99598.00;5113194;28;20264;-84
2023/10/06 05:43:11;;;;;;;17.67;5.67;;;;;;;19.66;54.22;99602.03;5113351;28;20251;-85
2023/10/06 05:45:45;;;;;;;14.53;5.17;;;;;;;19.76;53.78;99600.31;5113686;28;20193;-85
2023/10/06 05:48:12;;;;;;;11.90;4.50;;;;;;;19.81;53.67;99611.41;5095282;28;20266;-85
2023/10/06 05:50:43;;;;;;;19.13;5.43;;;;;;;19.92;53.87;99603.38;5114498;28;20607;-85
2023/10/06 05:53:12;;;;;;;15.73;5.20;;;;;;;19.99;53.53;99601.94;5117727;28;20179;-85
2023/10/06 05:55:43;;;;;;;15.03;5.17;;;;;;;20.14;53.31;99603.28;5117121;28;20644;-85
2023/10/06 05:58:14;;;;;;;12.30;5.27;;;;;;;20.36;52.61;99599.66;5098728;28;20566;-85
2023/10/06 06:01:28;;;;;;;11.57;5.63;;;;;;;20.35;52.51;99602.47;5116944;28;20711;-85
2023/10/06 06:03:33;;;;;;;11.13;4.00;;;;;;;20.55;52.34;99610.44;5090628;28;20285;-85
2023/10/06 06:06:08;;;;;;;14.57;4.20;;;;;;;20.80;51.67;99602.03;5085060;28;20232;-85
2023/10/06 06:08:37;;;;;;;13.30;5.03;;;;;;;20.91;51.24;99603.72;5117776;28;20564;-85
2023/10/06 06:11:05;;;;;;;14.17;4.87;;;;;;;20.96;51.29;99611.34;5108235;28;20204;-85
2023/10/06 06:13:33;;;;;;;14.20;5.57;;;;;;;21.01;50.62;99604.63;5096351;28;20195;-85
2023/10/06 06:15:59;;;;;;;9.53;3.77;;;;;;;21.59;50.02;99618.97;5100315;28;20222;-84
2023/10/06 06:18:27;;;;;;;13.20;4.43;;;;;;;22.89;46.82;99608.59;5116257;28;20217;-84
2023/10/06 06:20:54;;;;;;;10.63;4.00;;;;;;;24.41;43.24;99603.19;5116588;28;20178;-85
2023/10/06 06:23:21;;;;;;;9.37;4.20;;;;;;;25.55;41.03;99597.44;5116397;28;20644;-84
2023/10/06 06:25:47;;;;;;;12.17;4.47;;;;;;;26.27;38.78;99593.13;5116818;28;20172;-84
2023/10/06 06:28:14;;;;;;;14.00;4.73;;;;;;;27.10;37.86;99598.00;5116194;28;20184;-85
2023/10/06 06:30:40;;;;;;;9.73;3.47;;;;;;;27.78;36.18;99598.16;5094669;28;20293;-85
2023/10/06 06:33:08;;;;;;;11.43;3.67;;;;;;;28.34;34.85;99599.59;5096610;28;20173;-85
2023/10/06 06:35:36;;;;;;;9.73;3.53;;;;;;;28.85;33.67;99602.47;5095978;28;20168;-85
2023/10/06 06:38:04;;;;;;;9.40;3.27;;;;;;;29.16;33.43;99598.56;5094988;28;20551;-85
2023/10/06 06:40:31;;;;;;;10.90;3.70;;;;;;;29.37;32.86;99595.09;5095886;28;20179;-85
2023/10/06 06:42:57;;;;;;;14.50;4.85;;;;;;;29.40;32.63;99605.53;5096105;28;20245;-85
2023/10/06 06:45:28;;;;;;;9.25;3.58;;;;;;;29.45;32.01;99600.41;5096123;28;20650;-85
2023/10/06 06:47:54;;;;;;;12.38;4.03;;;;;;;29.26;32.48;99605.53;5095827;28;20161;-85
2023/10/06 06:50:21;;;;;;;11.07;4.75;;;;;;;29.00;32.67;99606.00;5095722;28;20222;-86
2023/10/06 06:52:51;;;;;;;8.77;4.35;;;;;;;28.93;32.71;99600.50;5095282;28;20199;-86
2023/10/06 06:55:17;;;;;;;9.88;3.88;;;;;;;28.74;32.99;99606.47;5096202;28;20176;-87
2023/10/06 06:57:43;;;;;;;8.45;3.22;;;;;;;28.53;32.89;99609.88;5094191;28;20185;-87
2023/10/06 07:00:17;;;;;;;11.20;4.40;;;;;;;28.42;33.30;99612.16;5094271;28;20195;-88
2023/10/06 07:02:52;;;;;;;10.77;3.40;;;;;;;28.32;33.90;99612.41;5093456;28;20584;-87
2023/10/06 07:05:20;;;;;;;10.45;3.70;;;;;;;28.18;33.32;99604.28;5094434;28;20184;-87
2023/10/06 07:07:50;;;;;;;11.60;3.72;;;;;;;27.92;33.68;99610.84;5094730;28;20267;-88
2023/10/06 07:10:20;;;;;;;10.52;3.33;;;;;;;28.06;34.48;99621.91;5094595;28;20212;-87
2023/10/06 07:12:51;;;;;;;11.55;4.05;;;;;;;28.08;33.94;99617.16;5095176;28;20214;-86
2023/10/06 07:15:20;;;;;;;9.95;3.65;;;;;;;27.96;33.28;99616.72;5095467;28;20200;-87
2023/10/06 07:17:50;;;;;;;8.15;3.55;;;;;;;27.68;34.28;99620.94;5094279;28;20225;-87
2023/10/06 07:20:19;;;;;;;7.88;3.42;;;;;;;27.26;34.91;99619.47;5094237;28;20248;-88
2023/10/06 07:22:49;;;;;;;11.40;3.60;;;;;;;26.82;34.97;99620.97;5094619;28;20271;-87
2023/10/06 07:25:15;;;;;;;11.10;3.50;;;;;;;26.84;35.44;99613.56;5095119;28;20253;-87
2023/10/06 07:27:44;;;;;;;10.15;3.40;;;;;;;26.96;35.37;99611.34;5093991;28;20176;-90
2023/10/06 07:30:11;;;;;;;11.18;3.30;;;;;;;27.00;35.74;99608.13;5095146;28;20204;-88
2023/10/06 07:32:41;;;;;;;8.25;3.30;;;;;;;27.13;36.01;99616.47;5115590;28;20155;-88
2023/10/06 07:35:09;;;;;;;9.23;3.80;;;;;;;27.14;35.36;99610.09;5115390;28;20160;-87
2023/10/06 07:37:36;;;;;;;10.27;3.63;;;;;;;27.26;35.14;99618.63;5115217;28;20171;-87
2023/10/06 07:40:12;;;;;;;9.67;3.93;;;;;;;27.32;35.09;99616.06;5115152;28;20168;-87
2023/10/06 07:42:48;;;;;;;13.83;4.13;;;;;;;27.24;35.20;99609.88;5115210;28;20179;-88
2023/10/06 07:45:14;;;;;;;10.40;3.67;;;;;;;27.27;35.08;99610.38;5115366;28;20517;-87
2023/10/06 07:47:42;;;;;;;9.73;3.50;;;;;;;27.14;35.10;99609.25;5096456;28;20176;-87
2023/10/06 07:50:12;;;;;;;10.85;3.00;;;;;;;27.04;35.56;99608.63;5096956;28;20200;-88
2023/10/06 07:52:43;;;;;;;10.80;3.17;;;;;;;26.99;35.58;99611.00;5096976;28;20585;-88
2023/10/06 07:55:11;;;;;;;7.50;3.40;;;;;;;26.95;35.45;99605.13;5096928;28;20251;-88
2023/10/06 07:57:45;;;;;;;12.60;4.03;;;;;;;27.01;35.97;99604.44;5114615;28;20219;-89
2023/10/06 08:00:18;;;;;;;9.13;3.67;;;;;;;27.05;35.73;99605.75;5115347;28;20164;-88
2023/10/06 08:02:44;;;;;;;11.45;4.40;;;;;;;27.16;35.60;99608.06;5114875;28;20509;-88
2023/10/06 08:05:13;;;;;;;10.13;3.78;;;;;;;27.06;35.57;99603.91;5114654;28;20252;-88
2023/10/06 08:07:42;;;;;;;10.63;3.30;;;;;;;26.96;35.77;99606.81;5114782;28;20168;-89
2023/10/06 08:10:19;;;;;;;11.02;3.67;;;;;;;26.91;35.94;99611.88;5096405;28;20600;-87
2023/10/06 08:12:50;;;;;;;8.38;3.30;;;;;;;26.83;36.05;99611.91;5096357;28;20168;-90
2023/10/06 08:15:17;;;;;;;11.05;4.38;;;;;;;26.97;36.06;99607.63;5096324;28;20176;-88
2023/10/06 08:17:53;;;;;;;12.00;4.47;;;;;;;26.92;36.63;99607.31;5114835;28;20168;-89
2023/10/06 08:20:20;;;;;;;10.48;3.55;;;;;;;27.08;36.38;99610.78;5114518;28;20217;-88
2023/10/06 08:22:47;;;;;;;7.63;3.50;;;;;;;27.15;36.19;99606.38;5114363;28;20186;-88
2023/10/06 08:25:15;;;;;;;9.80;3.80;;;;;;;27.20;36.21;99612.06;5114352;28;20211;-87
2023/10/06 08:27:43;;;;;;;10.90;3.47;;;;;;;27.28;35.75;99617.41;5114802;28;20198;-88
2023/10/06 08:30:21;;;;;;;7.63;3.42;;;;;;;27.46;35.72;99611.00;5104228;28;20200;-88
2023/10/06 08:32:52;;;;;;;10.20;3.85;;;;;;;27.39;36.02;99614.38;5100051;28;20183;-88
2023/10/06 08:35:19;;;;;;;9.15;3.45;;;;;;;27.42;36.37;99614.03;5096074;28;20697;-88
2023/10/06 08:37:49;;;;;;;10.70;4.00;;;;;;;27.78;35.44;99608.91;5113888;28;20190;-88
2023/10/06 08:40:26;;;;;;;9.98;3.33;;;;;;;28.19;35.22;99614.06;5113985;28;20605;-88
2023/10/06 08:42:54;;;;;;;12.40;3.60;;;;;;;28.43;34.32;99606.56;5113996;28;20206;-88
2023/10/06 08:45:28;;;;;;;9.70;3.00;;;;;;;28.53;34.01;99612.56;5113956;28;20647;-88
2023/10/06 08:48:01;;;;;;;9.57;3.58;;;;;;;28.50;33.76;99612.06;5113787;28;20193;-88
2023/10/06 08:50:29;;;;;;;9.00;3.53;;;;;;;28.53;33.88;99609.03;5113780;28;20191;-88
2023/10/06 08:52:57;;;;;;;7.13;3.25;;;;;;;28.55;33.84;99607.81;5096000;28;20179;-88
2023/10/06 08:55:25;;;;;;;9.02;3.47;;;;;;;28.65;34.13;99604.88;5113494;28;20258;-88
2023/10/06 08:57:53;;;;;;;13.98;3.47;;;;;;;28.76;33.54;99600.88;5113626;28;20187;-90
2023/10/06 09:00:19;;;;;;;10.60;3.35;;;;;;;29.10;33.98;99606.56;5113626;28;20176;-89
2023/10/06 09:02:47;;;;;;;8.23;3.63;;;;;;;28.81;32.90;99596.59;5113767;28;20179;-88
2023/10/06 09:05:15;;;;;;;10.07;3.38;;;;;;;28.74;33.42;99592.13;5112459;28;20176;-88
2023/10/06 09:08:05;;;;;;;8.70;3.75;;;;;;;28.74;32.52;99601.06;5095972;28;20199;-89
2023/10/06 09:10:34;;;;;;;8.10;3.65;;;;;;;28.85;33.12;99583.59;5113425;28;20217;-89
2023/10/06 09:13:11;;;;;;;8.98;3.80;;;;;;;28.88;32.72;99588.63;5113845;28;20182;-88
2023/10/06 09:15:40;;;;;;;12.40;3.63;;;;;;;28.96;32.83;99599.28;5113802;28;20358;-89
2023/10/06 09:18:20;;;;;;;8.90;3.78;;;;;;;28.72;32.91;99588.78;5113500;28;20621;-88
2023/10/06 09:20:51;;;;;;;10.30;3.33;;;;;;;28.81;32.82;99582.25;5113792;28;20174;-88
2023/10/06 09:23:37;;;;;;;11.27;3.35;;;;;;;28.73;33.63;99588.59;5113626;28;20171;-88
2023/10/06 09:26:07;;;;;;;8.05;3.30;;;;;;;28.81;33.16;99590.34;5116035;28;20147;-88
2023/10/06 09:28:34;;;;;;;7.13;3.05;;;;;;;29.21;33.03;99592.63;5117570;28;20175;-89
2023/10/06 09:31:02;;;;;;;14.70;3.17;;;;;;;29.49;32.71;99588.16;5099540;28;20222;-89
2023/10/06 09:33:41;;;;;;;10.57;4.05;;;;;;;29.53;32.71;99586.78;5117661;28;20551;-89
2023/10/06 09:36:16;;;;;;;9.93;3.55;;;;;;;29.39;32.74;99581.41;5117571;28;20159;-88
2023/10/06 09:38:44;;;;;;;14.85;4.10;;;;;;;29.43;32.14;99575.41;5118104;28;20613;-88
2023/10/06 09:41:11;;;;;;;10.68;3.58;;;;;;;29.45;32.56;99586.88;5117328;28;20175;-88
2023/10/06 09:43:39;;;;;;;9.10;3.67;;;;;;;29.45;32.72;99586.03;5099436;28;20769;-88
2023/10/06 09:46:13;;;;;;;10.73;3.58;;;;;;;29.28;32.68;99582.72;5117293;28;20169;-89
2023/10/06 09:48:42;;;;;;;13.70;4.65;;;;;;;29.50;32.59;99575.50;5117223;28;20187;-88
2023/10/06 09:51:12;;;;;;;10.65;4.13;;;;;;;29.55;32.96;99573.91;5117018;28;20661;-88
2023/10/06 09:53:43;;;;;;;14.35;4.38;;;;;;;29.56;32.99;99570.16;5117519;28;20251;-90
2023/10/06 09:56:12;;;;;;;13.73;4.05;;;;;;;29.79;32.87;99564.63;5117282;28;20171;-90
2023/10/06 09:58:45;;;;;;;8.32;3.40;;;;;;;29.84;32.63;99562.19;5098675;28;20641;-89
2023/10/06 10:01:14;;;;;;;8.23;3.42;;;;;;;30.04;32.78;99556.94;5116664;28;20174;-88
2023/10/06 10:03:41;;;;;;;8.23;3.65;;;;;;;30.13;31.96;99545.81;5101025;28;20181;-89
2023/10/06 10:06:09;;;;;;;8.35;3.65;;;;;;;29.92;31.72;99542.28;5089515;28;20184;-87
2023/10/06 10:08:39;;;;;;;9.77;4.25;;;;;;;29.69;32.40;99548.69;5105124;28;20179;-88
2023/10/06 10:11:15;;;;;;;9.45;3.53;;;;;;;29.73;32.38;99543.75;5100194;28;20207;-87
2023/10/06 10:13:53;;;;;;;11.23;4.53;;;;;;;29.46;33.19;99537.22;5108790;28;20170;-88
2023/10/06 10:16:56;;;;;;;9.45;3.45;;;;;;;29.68;32.64;99536.22;5081117;28;20271;-88
2023/10/06 10:19:23;;;;;;;9.88;3.47;;;;;;;29.83;32.29;99528.91;5099750;28;20651;-89
2023/10/06 10:21:49;;;;;;;6.55;3.55;;;;;;;30.04;32.13;99527.19;5090636;28;20207;-90
2023/10/06 10:24:20;;;;;;;12.48;3.78;;;;;;;29.98;31.52;99522.59;5097862;28;20263;-89
2023/10/06 10:26:47;;;;;;;9.23;4.53;;;;;;;29.81;32.29;99520.16;5102979;28;20267;-88
2023/10/06 10:29:13;;;;;;;11.25;4.25;;;;;;;29.70;32.61;99523.34;5103242;28;20181;-89
2023/10/06 10:31:51;;;;;;;9.50;4.47;;;;;;;29.72;32.21;99515.88;5101705;28;20614;-89
2023/10/06 10:34:25;;;;;;;9.95;4.15;;;;;;;29.75;32.68;99512.78;5104616;28;20172;-88
2023/10/06 10:37:05;;;;;;;16.13;5.15;;;;;;;29.55;32.81;99509.06;5107172;28;20300;-88
2023/10/06 10:39:51;;;;;;;10.00;4.75;;;;;;;29.55;32.99;99500.97;5087356;28;20271;-88
2023/10/06 10:42:37;;;;;;;14.38;4.05;;;;;;;29.41;32.47;99512.66;5109956;28;20187;-89
2023/10/06 10:45:30;;;;;;;10.50;3.63;;;;;;;29.39;33.02;99500.38;5116050;28;20203;-88
2023/10/06 10:47:58;;;;;;;9.38;3.85;;;;;;;29.57;32.06;99507.00;5077732;28;20561;-89
2023/10/06 10:50:50;;;;;;;13.55;4.07;;;;;;;29.68;33.12;99501.09;5095817;28;20199;-89
2023/10/06 10:53:18;;;;;;;13.20;4.32;;;;;;;29.54;32.74;99495.72;5106084;28;20171;-90
2023/10/06 10:55:45;;;;;;;10.93;4.00;;;;;;;29.66;33.00;99492.34;5116143;28;20186;-89
2023/10/06 10:58:11;;;;;;;9.90;3.63;;;;;;;29.54;32.81;99480.38;5115849;28;20183;-88
2023/10/06 11:00:36;;;;;;;9.70;4.20;;;;;;;29.85;32.82;99487.34;5116279;28;20716;-88
2023/10/06 11:03:03;;;;;;;8.32;4.13;;;;;;;29.86;32.50;99491.69;5115579;28;20260;-90
2023/10/06 11:05:31;;;;;;;9.02;3.78;;;;;;;29.88;32.33;99482.34;5098057;28;20201;-89
2023/10/06 11:08:01;;;;;;;10.90;4.75;;;;;;;29.76;32.26;99475.78;5115453;28;20183;-89
2023/10/06 11:10:28;;;;;;;8.88;3.88;;;;;;;29.72;32.35;99483.44;5115789;28;20183;-89
2023/10/06 11:13:15;;;;;;;13.57;3.65;;;;;;;29.56;32.39;99483.69;5116271;28;20637;-89
2023/10/06 11:15:42;;;;;;;7.82;3.80;;;;;;;29.64;32.51;99470.06;5093776;28;20584;-90
2023/10/06 11:18:09;;;;;;;10.20;4.00;;;;;;;29.68;32.54;99482.16;5112634;28;20184;-92
2023/10/06 11:20:39;;;;;;;8.30;3.90;;;;;;;29.72;33.04;99469.09;5089813;28;20203;-89
2023/10/06 11:23:06;;;;;;;8.55;3.88;;;;;;;29.97;32.07;99464.13;5115499;28;20626;-89
2023/10/06 11:25:36;;;;;;;9.85;3.90;;;;;;;29.91;32.50;99471.16;5112212;28;20203;-90
2023/10/06 11:28:08;;;;;;;9.32;3.95;;;;;;;30.20;32.21;99464.72;5097492;28;20544;-89
2023/10/06 11:30:39;;;;;;;11.45;4.28;;;;;;;30.29;32.12;99458.13;5115292;28;20285;-92
2023/10/06 11:33:08;;;;;;;11.48;4.28;;;;;;;30.29;31.38;99463.53;5108897;28;20188;-89
2023/10/06 11:35:37;;;;;;;7.70;3.70;;;;;;;30.31;31.25;99461.47;5102503;28;20180;-89
2023/10/06 11:38:11;;;;;;;11.45;4.25;;;;;;;30.47;31.36;99466.59;5105040;28;20173;-89
2023/10/06 11:40:38;;;;;;;9.63;4.10;;;;;;;30.41;31.51;99460.09;5095110;28;20162;-89
2023/10/06 11:43:14;;;;;;;10.65;4.63;;;;;;;30.54;31.47;99456.63;5094884;28;20253;-88
2023/10/06 11:45:41;;;;;;;12.32;4.43;;;;;;;30.62;31.26;99451.03;5096231;28;20225;-89
2023/10/06 11:48:29;;;;;;;16.02;4.95;;;;;;;30.54;31.61;99453.91;5113882;28;20183;-89
2023/10/06 11:51:08;;;;;;;10.70;4.20;;;;;;;30.23;31.67;99448.94;5081254;28;20227;-88